createdAt,value
2018-12-16T00:01:51.772Z,0.20
2018-12-16T00:04:20.158Z,0.20
2018-12-16T00:06:48.518Z,0.10
2018-12-16T00:09:17.091Z,0.10
2018-12-16T00:11:45.415Z,0.10
2018-12-16T00:14:13.768Z,0.10
2018-12-16T00:16:42.126Z,0.00
2018-12-16T00:19:11.432Z,0.10
2018-12-16T00:21:39.992Z,0.10
2018-12-16T00:24:08.349Z,0.10
2018-12-16T00:26:47.892Z,0.00
2018-12-16T00:29:20.704Z,-0.10
2018-12-16T00:31:49.060Z,0.00
2018-12-16T00:34:17.535Z,0.10
2018-12-16T00:36:45.880Z,0.20
2018-12-16T00:39:14.240Z,0.10
2018-12-16T00:41:42.622Z,0.00
2018-12-16T00:44:11.008Z,0.00
2018-12-16T00:46:39.329Z,-0.10
2018-12-16T00:49:07.711Z,-0.20
2018-12-16T00:51:36.076Z,-0.20
2018-12-16T00:54:04.755Z,-0.20
2018-12-16T00:56:33.552Z,-0.10
2018-12-16T00:59:02.028Z,-0.20
2018-12-16T01:01:30.388Z,0.00
2018-12-16T01:03:58.780Z,0.10
2018-12-16T01:06:27.239Z,-0.10
2018-12-16T01:08:55.616Z,-0.10
2018-12-16T01:11:23.969Z,-0.10
2018-12-16T01:13:52.316Z,-0.20
2018-12-16T01:16:20.715Z,-0.20
2018-12-16T01:18:49.185Z,-0.20
2018-12-16T01:21:17.656Z,-0.10
2018-12-16T01:23:46.031Z,-0.10
2018-12-16T01:26:14.444Z,0.00
2018-12-16T01:28:42.769Z,0.10
2018-12-16T01:31:11.154Z,0.10
2018-12-16T01:33:39.547Z,0.20
2018-12-16T01:36:07.905Z,0.20
2018-12-16T01:38:36.290Z,0.10
2018-12-16T01:41:04.724Z,0.00
2018-12-16T01:43:33.104Z,0.10
2018-12-16T01:46:01.508Z,0.10
2018-12-16T01:48:29.922Z,0.00
2018-12-16T01:50:58.317Z,0.00
2018-12-16T01:53:26.638Z,-0.10
2018-12-16T01:55:55.096Z,0.00
2018-12-16T01:58:23.440Z,0.10
2018-12-16T02:00:51.816Z,0.10
2018-12-16T02:03:20.167Z,0.00
2018-12-16T02:05:48.576Z,0.00
2018-12-16T02:08:17.156Z,-0.10
2018-12-16T02:10:45.504Z,0.00
2018-12-16T02:13:13.836Z,0.00
2018-12-16T02:15:42.169Z,-0.10
2018-12-16T02:18:10.636Z,-0.10
2018-12-16T02:20:39.423Z,-0.10
2018-12-16T02:23:07.763Z,-0.10
2018-12-16T02:25:36.375Z,0.00
2018-12-16T02:28:04.745Z,0.00
2018-12-16T02:30:33.066Z,0.00
2018-12-16T02:33:01.486Z,-0.10
2018-12-16T02:35:29.849Z,0.10
2018-12-16T02:37:58.200Z,-0.10
2018-12-16T02:40:26.530Z,-0.10
2018-12-16T02:42:54.876Z,-0.20
2018-12-16T02:45:23.297Z,-0.20
2018-12-16T02:47:51.656Z,-0.20
2018-12-16T02:50:20.016Z,-0.20
2018-12-16T02:52:48.318Z,-0.20
2018-12-16T02:55:16.864Z,-0.20
2018-12-16T02:57:45.205Z,-0.30
2018-12-16T03:00:13.751Z,-0.10
2018-12-16T03:02:42.993Z,-0.10
2018-12-16T03:05:11.363Z,-0.10
2018-12-16T03:07:39.706Z,-0.10
2018-12-16T03:10:08.354Z,0.00
2018-12-16T03:12:36.679Z,-0.10
2018-12-16T03:15:05.758Z,0.00
2018-12-16T03:17:34.064Z,0.10
2018-12-16T03:20:02.485Z,0.10
2018-12-16T03:22:30.821Z,0.10
2018-12-16T03:24:59.162Z,0.10
2018-12-16T03:27:27.482Z,0.00
2018-12-16T03:29:55.816Z,0.00
2018-12-16T03:32:24.231Z,0.10
2018-12-16T03:34:52.561Z,0.00
2018-12-16T03:37:20.943Z,-0.10
2018-12-16T03:39:49.345Z,-0.10
2018-12-16T03:42:17.737Z,-0.10
2018-12-16T03:44:46.133Z,-0.10
2018-12-16T03:47:14.559Z,-0.20
2018-12-16T03:49:43.015Z,-0.10
2018-12-16T03:52:11.445Z,0.00
2018-12-16T03:54:39.786Z,-0.10
2018-12-16T03:57:08.701Z,-0.20
2018-12-16T03:59:37.048Z,-0.20
2018-12-16T04:02:05.401Z,-0.20
2018-12-16T04:04:33.787Z,-0.20
2018-12-16T04:07:02.234Z,-0.10
2018-12-16T04:09:30.662Z,-0.20
2018-12-16T04:11:59.022Z,-0.20
2018-12-16T04:14:27.601Z,-0.10
2018-12-16T04:16:55.950Z,-0.10
2018-12-16T04:19:24.278Z,0.00
2018-12-16T04:21:52.632Z,-0.10
2018-12-16T04:24:21.634Z,-0.30
2018-12-16T04:26:50.049Z,-0.10
2018-12-16T04:29:18.458Z,0.00
2018-12-16T04:31:46.904Z,0.00
2018-12-16T04:34:15.378Z,0.00
2018-12-16T04:36:43.757Z,0.10
2018-12-16T04:39:12.107Z,0.10
2018-12-16T04:41:40.517Z,0.20
2018-12-16T04:44:08.864Z,0.20
2018-12-16T04:46:37.225Z,0.30
2018-12-16T04:49:05.569Z,0.00
2018-12-16T04:51:33.956Z,-0.10
2018-12-16T04:54:02.299Z,-0.10
2018-12-16T04:56:30.697Z,0.10
2018-12-16T04:58:59.032Z,0.10
2018-12-16T05:01:27.350Z,-0.10
2018-12-16T05:03:55.812Z,-0.10
2018-12-16T05:06:24.233Z,0.00
2018-12-16T05:08:52.624Z,0.00
2018-12-16T05:11:20.952Z,0.00
2018-12-16T05:13:49.297Z,0.00
2018-12-16T05:16:17.672Z,-0.10
2018-12-16T05:18:46.061Z,-0.20
2018-12-16T05:21:14.407Z,-0.30
2018-12-16T05:23:42.780Z,-0.50
2018-12-16T05:26:11.141Z,-0.50
2018-12-16T05:28:39.515Z,-0.60
2018-12-16T05:31:07.895Z,-0.50
2018-12-16T05:33:36.382Z,-0.50
2018-12-16T05:36:04.853Z,-0.50
2018-12-16T05:38:33.186Z,-0.60
2018-12-16T05:41:01.528Z,-0.80
2018-12-16T05:43:29.883Z,-0.80
2018-12-16T05:45:58.238Z,-0.80
2018-12-16T05:48:26.598Z,-0.60
2018-12-16T05:50:55.036Z,-0.70
2018-12-16T05:53:23.412Z,-0.70
2018-12-16T05:55:51.746Z,-0.80
2018-12-16T05:58:21.081Z,-0.80
2018-12-16T06:00:49.446Z,-0.90
2018-12-16T06:03:17.763Z,-0.90
2018-12-16T06:05:46.103Z,-0.80
2018-12-16T06:08:14.484Z,-0.90
2018-12-16T06:10:42.904Z,-1.00
2018-12-16T06:13:11.261Z,-1.00
2018-12-16T06:15:39.909Z,-1.00
2018-12-16T06:18:08.295Z,-1.00
2018-12-16T06:20:36.681Z,-1.10
2018-12-16T06:23:05.014Z,-1.10
2018-12-16T06:25:33.355Z,-1.00
2018-12-16T06:28:01.739Z,-0.90
2018-12-16T06:30:33.344Z,-0.70
2018-12-16T06:33:01.764Z,-0.70
2018-12-16T06:35:30.200Z,-0.60
2018-12-16T06:37:58.580Z,-0.70
2018-12-16T06:40:26.913Z,-0.90
2018-12-16T06:42:55.263Z,-0.90
2018-12-16T06:45:23.644Z,-0.90
2018-12-16T06:47:52.032Z,-0.90
2018-12-16T06:50:20.401Z,-0.90
2018-12-16T06:52:48.709Z,-0.90
2018-12-16T06:55:17.034Z,-0.90
2018-12-16T06:57:45.447Z,-1.00
2018-12-16T07:00:13.916Z,-0.90
2018-12-16T07:02:42.261Z,-0.90
2018-12-16T07:05:11.007Z,-0.80
2018-12-16T07:07:39.382Z,-0.80
2018-12-16T07:10:07.743Z,-0.90
2018-12-16T07:12:36.220Z,-0.80
2018-12-16T07:15:05.219Z,-0.70
2018-12-16T07:17:33.694Z,-0.70
2018-12-16T07:20:02.189Z,-0.60
2018-12-16T07:22:30.577Z,-0.60
2018-12-16T07:24:59.141Z,-0.60
2018-12-16T07:27:27.653Z,-0.60
2018-12-16T07:29:56.022Z,-0.80
2018-12-16T07:32:24.548Z,-0.70
2018-12-16T07:34:52.918Z,-0.80
2018-12-16T07:37:21.319Z,-0.70
2018-12-16T07:39:49.866Z,-0.70
2018-12-16T07:42:18.206Z,-0.60
2018-12-16T07:44:46.569Z,-0.70
2018-12-16T07:47:14.955Z,-0.70
2018-12-16T07:49:43.387Z,-0.80
2018-12-16T07:52:11.851Z,-0.70
2018-12-16T07:54:40.211Z,-0.70
2018-12-16T07:57:08.601Z,-0.60
2018-12-16T07:59:36.983Z,-0.50
2018-12-16T08:02:05.326Z,-0.50
2018-12-16T08:04:33.696Z,-0.50
2018-12-16T08:07:02.036Z,-0.50
2018-12-16T08:09:30.387Z,-0.60
2018-12-16T08:11:58.747Z,-0.50
2018-12-16T08:14:27.100Z,-0.40
2018-12-16T08:16:55.804Z,-0.40
2018-12-16T08:19:24.550Z,-0.40
2018-12-16T08:21:52.957Z,-0.30
2018-12-16T08:24:23.294Z,-0.40
2018-12-16T08:26:51.920Z,-0.70
2018-12-16T08:29:20.247Z,-0.70
2018-12-16T08:31:48.647Z,-0.70
2018-12-16T08:34:17.060Z,-0.60
2018-12-16T08:36:45.453Z,-0.70
2018-12-16T08:39:13.827Z,-0.80
2018-12-16T08:41:42.185Z,-0.50
2018-12-16T08:44:10.545Z,-0.40
2018-12-16T08:46:38.893Z,-0.50
2018-12-16T08:49:07.264Z,-0.40
2018-12-16T08:51:35.842Z,-0.30
2018-12-16T08:54:04.235Z,-0.20
2018-12-16T08:56:32.618Z,-0.20
2018-12-16T08:59:01.067Z,-0.40
2018-12-16T09:01:29.450Z,-0.20
2018-12-16T09:03:57.884Z,-0.40
2018-12-16T09:06:26.291Z,-0.20
2018-12-16T09:08:55.568Z,-0.20
2018-12-16T09:11:24.078Z,-0.20
2018-12-16T09:13:52.437Z,-0.20
2018-12-16T09:16:20.853Z,-0.20
2018-12-16T09:18:49.217Z,-0.20
2018-12-16T09:21:17.531Z,0.00
2018-12-16T09:23:45.944Z,0.20
2018-12-16T09:26:14.288Z,0.30
2018-12-16T09:28:42.724Z,0.40
2018-12-16T09:31:11.058Z,0.40
2018-12-16T09:33:39.523Z,0.30
2018-12-16T09:36:07.924Z,0.30
2018-12-16T09:38:36.296Z,0.40
2018-12-16T09:41:04.735Z,0.20
2018-12-16T09:43:33.113Z,0.20
2018-12-16T09:46:01.497Z,0.20
2018-12-16T09:48:33.278Z,0.40
2018-12-16T09:51:01.621Z,0.50
2018-12-16T09:53:30.001Z,0.60
2018-12-16T09:55:58.400Z,0.60
2018-12-16T09:58:26.747Z,0.50
2018-12-16T10:00:55.112Z,0.50
2018-12-16T10:03:23.499Z,0.60
2018-12-16T10:05:51.844Z,0.60
2018-12-16T10:08:20.260Z,0.60
2018-12-16T10:10:48.640Z,0.70
2018-12-16T10:13:17.048Z,0.50
2018-12-16T10:15:45.395Z,0.50
2018-12-16T10:18:13.740Z,0.50
2018-12-16T10:20:42.152Z,0.60
2018-12-16T10:23:10.531Z,0.70
2018-12-16T10:25:38.884Z,0.70
2018-12-16T10:28:07.275Z,0.60
2018-12-16T10:30:35.629Z,0.80
2018-12-16T10:33:04.146Z,0.70
2018-12-16T10:35:32.564Z,0.80
2018-12-16T10:38:00.939Z,0.70
2018-12-16T10:40:29.427Z,0.60
2018-12-16T10:42:57.820Z,0.80
2018-12-16T10:45:26.799Z,0.80
2018-12-16T10:47:55.144Z,0.80
2018-12-16T10:50:23.470Z,0.90
2018-12-16T10:52:51.842Z,0.90
2018-12-16T10:55:20.565Z,0.90
2018-12-16T10:57:48.932Z,0.90
2018-12-16T11:00:22.635Z,0.90
2018-12-16T11:02:51.003Z,0.90
2018-12-16T11:05:19.733Z,0.80
2018-12-16T11:07:48.075Z,0.80
2018-12-16T11:10:17.108Z,0.80
2018-12-16T11:12:46.482Z,0.80
2018-12-16T11:15:15.033Z,0.80
2018-12-16T11:17:43.385Z,0.90
2018-12-16T11:20:12.005Z,1.00
2018-12-16T11:22:40.380Z,0.90
2018-12-16T11:25:11.441Z,0.70
2018-12-16T11:27:39.822Z,0.60
2018-12-16T11:30:08.710Z,0.70
2018-12-16T11:32:37.112Z,0.60
2018-12-16T11:35:05.773Z,0.70
2018-12-16T11:37:34.165Z,0.80
2018-12-16T11:40:02.560Z,0.80
2018-12-16T11:42:31.010Z,0.70
2018-12-16T11:44:59.484Z,0.70
2018-12-16T11:47:27.826Z,0.60
2018-12-16T11:49:56.171Z,0.60
2018-12-16T11:52:25.040Z,0.60
2018-12-16T11:54:53.568Z,0.60
2018-12-16T11:57:21.940Z,0.50
2018-12-16T11:59:50.359Z,0.70
2018-12-16T12:02:19.325Z,0.70
2018-12-16T12:04:48.055Z,0.80
2018-12-16T12:07:16.647Z,0.90
2018-12-16T12:09:45.074Z,1.00
2018-12-16T12:12:13.421Z,1.00
2018-12-16T12:14:41.895Z,1.10
2018-12-16T12:17:10.420Z,1.00
2018-12-16T12:19:40.597Z,0.90
2018-12-16T12:22:09.307Z,0.90
2018-12-16T12:24:37.684Z,0.80
2018-12-16T12:27:06.151Z,0.70
2018-12-16T12:29:34.667Z,0.80
2018-12-16T12:32:03.052Z,0.70
2018-12-16T12:34:31.429Z,0.70
2018-12-16T12:36:59.821Z,0.70
2018-12-16T12:39:28.153Z,0.70
2018-12-16T12:41:56.541Z,0.60
2018-12-16T12:44:24.912Z,0.60
2018-12-16T12:46:53.286Z,0.60
2018-12-16T12:49:21.683Z,0.60
2018-12-16T12:51:50.017Z,0.70
2018-12-16T12:54:18.411Z,0.80
2018-12-16T12:56:46.808Z,0.80
2018-12-16T12:59:15.229Z,1.00
2018-12-16T13:01:43.597Z,0.80
2018-12-16T13:04:12.070Z,0.80
2018-12-16T13:06:40.428Z,0.80
2018-12-16T13:09:09.232Z,0.70
2018-12-16T13:11:37.744Z,0.60
2018-12-16T13:14:06.110Z,0.70
2018-12-16T13:16:34.468Z,0.60
2018-12-16T13:19:02.987Z,0.60
2018-12-16T13:21:31.381Z,0.60
2018-12-16T13:23:59.723Z,0.70
2018-12-16T13:26:28.242Z,0.60
2018-12-16T13:28:56.603Z,0.60
2018-12-16T13:31:24.958Z,0.70
2018-12-16T13:33:53.331Z,0.60
2018-12-16T13:36:21.680Z,0.60
2018-12-16T13:38:50.048Z,0.60
2018-12-16T13:41:18.504Z,0.70
2018-12-16T13:43:46.959Z,0.60
2018-12-16T13:46:15.357Z,0.70
2018-12-16T13:48:43.722Z,0.70
2018-12-16T13:51:12.084Z,0.70
2018-12-16T13:53:40.644Z,0.80
2018-12-16T13:56:09.060Z,0.90
2018-12-16T13:58:37.467Z,0.90
2018-12-16T14:01:06.031Z,0.80
2018-12-16T14:03:34.449Z,0.80
2018-12-16T14:06:02.820Z,0.80
2018-12-16T14:08:31.293Z,0.70
2018-12-16T14:10:59.712Z,0.60
2018-12-16T14:13:32.198Z,0.60
2018-12-16T14:16:00.584Z,0.70
2018-12-16T14:18:29.023Z,0.70
2018-12-16T14:20:57.473Z,0.70
2018-12-16T14:23:25.930Z,0.70
2018-12-16T14:25:54.297Z,0.70
2018-12-16T14:28:22.676Z,0.60
2018-12-16T14:30:51.031Z,0.60
2018-12-16T14:33:19.374Z,0.60
2018-12-16T14:35:47.972Z,0.60
2018-12-16T14:38:16.779Z,0.60
2018-12-16T14:40:45.128Z,0.70
2018-12-16T14:43:13.481Z,0.60
2018-12-16T14:45:41.916Z,0.70
2018-12-16T14:48:10.269Z,0.60
2018-12-16T14:50:38.595Z,0.60
2018-12-16T14:53:06.997Z,0.60
2018-12-16T14:55:35.353Z,0.50
2018-12-16T14:58:04.762Z,0.60
2018-12-16T15:00:33.765Z,0.60
2018-12-16T15:03:04.115Z,0.60
2018-12-16T15:05:32.485Z,0.70
2018-12-16T15:08:00.852Z,0.70
2018-12-16T15:10:29.252Z,0.70
2018-12-16T15:12:57.731Z,0.60
2018-12-16T15:15:26.164Z,0.70
2018-12-16T15:17:54.532Z,0.70
2018-12-16T15:20:23.044Z,0.80
2018-12-16T15:22:51.511Z,0.60
2018-12-16T15:25:19.861Z,0.60
2018-12-16T15:27:48.196Z,0.70
2018-12-16T15:30:16.707Z,0.70
2018-12-16T15:32:45.140Z,0.70
2018-12-16T15:35:13.687Z,0.80
2018-12-16T15:37:43.138Z,0.90
2018-12-16T15:40:11.479Z,0.80
2018-12-16T15:42:39.862Z,0.80
2018-12-16T15:45:10.147Z,0.90
2018-12-16T15:47:38.649Z,0.90
2018-12-16T15:50:08.409Z,0.90
2018-12-16T15:52:36.878Z,0.90
2018-12-16T15:55:08.021Z,1.00
2018-12-16T15:57:36.516Z,0.90
2018-12-16T16:02:40.204Z,0.90
2018-12-16T16:05:08.777Z,1.00
2018-12-16T16:07:37.111Z,1.00
2018-12-16T16:10:07.037Z,0.90
2018-12-16T16:12:35.531Z,0.90
2018-12-16T16:15:04.137Z,0.80
2018-12-16T16:17:32.678Z,0.80
2018-12-16T16:20:01.096Z,0.90
2018-12-16T16:22:29.561Z,0.90
2018-12-16T16:24:58.035Z,0.90
2018-12-16T16:27:26.372Z,0.90
2018-12-16T16:29:54.704Z,0.90
2018-12-16T16:32:23.300Z,0.90
2018-12-16T16:34:51.760Z,1.00
2018-12-16T16:37:20.164Z,0.90
2018-12-16T16:39:48.666Z,0.90
2018-12-16T16:42:17.116Z,0.90
2018-12-16T16:44:45.545Z,1.00
2018-12-16T16:47:13.963Z,0.90
2018-12-16T16:49:42.384Z,0.80
2018-12-16T16:52:10.786Z,0.80
2018-12-16T16:54:39.115Z,0.70
2018-12-16T16:57:14.264Z,0.80
2018-12-16T16:59:42.672Z,0.80
2018-12-16T17:02:11.092Z,0.90
2018-12-16T17:04:39.549Z,0.90
2018-12-16T17:07:07.976Z,1.00
2018-12-16T17:09:36.347Z,1.00
2018-12-16T17:12:04.924Z,1.00
2018-12-16T17:14:33.376Z,1.00
2018-12-16T17:17:01.810Z,1.00
2018-12-16T17:19:30.148Z,1.00
2018-12-16T17:21:58.718Z,1.00
2018-12-16T17:24:27.137Z,1.00
2018-12-16T17:26:55.550Z,1.10
2018-12-16T17:29:24.187Z,1.10
2018-12-16T17:31:52.605Z,0.90
2018-12-16T17:34:20.983Z,1.00
2018-12-16T17:36:49.423Z,1.00
2018-12-16T17:39:17.889Z,1.00
2018-12-16T17:41:46.260Z,1.00
2018-12-16T17:44:14.683Z,1.10
2018-12-16T17:46:43.037Z,1.10
2018-12-16T17:49:11.494Z,0.90
2018-12-16T17:51:39.863Z,1.00
2018-12-16T17:54:08.263Z,1.20
2018-12-16T17:56:37.180Z,1.20
2018-12-16T17:59:05.814Z,1.10
2018-12-16T18:01:34.961Z,1.10
2018-12-16T18:04:05.336Z,1.10
2018-12-16T18:06:33.721Z,1.10
2018-12-16T18:09:02.058Z,1.20
2018-12-16T18:11:30.609Z,1.20
2018-12-16T18:13:59.074Z,1.20
2018-12-16T18:16:27.624Z,1.20
2018-12-16T18:18:56.035Z,1.40
2018-12-16T18:21:24.333Z,1.40
2018-12-16T18:23:52.780Z,1.40
2018-12-16T18:26:21.130Z,1.40
2018-12-16T18:28:49.506Z,1.40
2018-12-16T18:31:17.821Z,1.30
2018-12-16T18:33:46.446Z,1.30
2018-12-16T18:36:14.851Z,1.30
2018-12-16T18:38:43.286Z,1.30
2018-12-16T18:41:11.672Z,1.30
2018-12-16T18:43:40.038Z,1.30
2018-12-16T18:46:08.418Z,1.20
2018-12-16T18:48:36.892Z,1.10
2018-12-16T18:51:05.291Z,1.40
2018-12-16T18:53:33.608Z,1.40
2018-12-16T18:56:02.149Z,1.40
2018-12-16T18:58:30.551Z,1.50
2018-12-16T19:00:59.006Z,1.50
2018-12-16T19:03:27.465Z,1.60
2018-12-16T19:05:55.944Z,1.60
2018-12-16T19:08:24.431Z,1.60
2018-12-16T19:10:52.792Z,1.60
2018-12-16T19:13:21.935Z,1.50
2018-12-16T19:15:50.566Z,1.60
2018-12-16T19:18:19.036Z,1.60
2018-12-16T19:20:47.545Z,1.60
2018-12-16T19:23:15.921Z,1.60
2018-12-16T19:25:44.320Z,1.50
2018-12-16T19:28:12.661Z,1.60
2018-12-16T19:30:41.085Z,1.60
2018-12-16T19:33:09.439Z,1.70
2018-12-16T19:35:37.829Z,1.80
2018-12-16T19:38:06.293Z,1.80
2018-12-16T19:40:34.640Z,1.80
2018-12-16T19:43:03.045Z,1.80
2018-12-16T19:45:31.487Z,1.80
2018-12-16T19:47:59.840Z,1.80
2018-12-16T19:50:28.199Z,1.70
2018-12-16T19:52:56.670Z,1.70
2018-12-16T19:55:25.445Z,1.80
2018-12-16T19:57:53.792Z,1.70
2018-12-16T20:00:22.387Z,1.80
2018-12-16T20:02:50.845Z,1.80
2018-12-16T20:05:21.291Z,1.80
2018-12-16T20:07:50.167Z,1.80
2018-12-16T20:10:18.645Z,1.80
2018-12-16T20:12:47.064Z,1.80
2018-12-16T20:15:15.395Z,1.90
2018-12-16T20:17:43.871Z,1.90
2018-12-16T20:20:12.455Z,1.90
2018-12-16T20:22:40.892Z,2.00
2018-12-16T20:25:09.357Z,1.90
2018-12-16T20:27:37.787Z,1.60
2018-12-16T20:30:08.174Z,1.80
2018-12-16T20:32:36.618Z,1.70
2018-12-16T20:35:05.293Z,1.80
2018-12-16T20:37:34.313Z,1.70
2018-12-16T20:40:02.932Z,1.80
2018-12-16T20:42:31.406Z,1.70
2018-12-16T20:44:59.934Z,1.70
2018-12-16T20:47:28.337Z,1.80
2018-12-16T20:49:56.786Z,1.90
2018-12-16T20:52:25.141Z,1.90
2018-12-16T20:54:53.501Z,2.00
2018-12-16T20:57:21.861Z,1.80
2018-12-16T20:59:50.856Z,1.80
2018-12-16T21:02:19.409Z,1.80
2018-12-16T21:04:47.828Z,1.80
2018-12-16T21:07:16.229Z,1.80
2018-12-16T21:09:44.662Z,1.80
2018-12-16T21:14:25.945Z,1.80
2018-12-16T21:18:02.999Z,1.70
2018-12-16T21:20:31.598Z,1.80
2018-12-16T21:22:59.943Z,1.80
2018-12-16T21:25:28.801Z,1.80
2018-12-16T21:27:57.264Z,1.80
2018-12-16T21:30:25.669Z,1.90
2018-12-16T21:32:54.051Z,1.90
2018-12-16T21:35:22.531Z,2.00
2018-12-16T21:37:50.905Z,2.00
2018-12-16T21:40:26.041Z,2.10
2018-12-16T21:42:54.529Z,2.20
2018-12-16T21:45:22.914Z,2.00
2018-12-16T21:47:51.285Z,2.00
2018-12-16T21:50:19.684Z,2.00
2018-12-16T21:52:48.007Z,2.10
2018-12-16T21:55:16.376Z,2.20
2018-12-16T21:57:44.746Z,2.20
2018-12-16T22:00:13.219Z,2.30
2018-12-16T22:02:41.619Z,2.30
2018-12-16T22:05:11.775Z,2.20
2018-12-16T22:07:40.234Z,2.10
2018-12-16T22:10:08.826Z,1.90
2018-12-16T22:12:37.143Z,1.90
2018-12-16T22:15:05.840Z,2.00
2018-12-16T22:17:34.225Z,2.00
2018-12-16T22:20:02.825Z,2.10
2018-12-16T22:22:31.152Z,2.20
2018-12-16T22:24:59.487Z,2.20
2018-12-16T22:27:27.871Z,2.20
2018-12-16T22:29:56.233Z,2.20
2018-12-16T22:32:24.739Z,2.30
2018-12-16T22:34:53.111Z,2.40
2018-12-16T22:37:21.823Z,2.30
2018-12-16T22:39:50.332Z,2.40
2018-12-16T22:42:18.696Z,2.40
2018-12-16T22:44:47.155Z,2.20
2018-12-16T22:47:15.598Z,2.20
2018-12-16T22:49:43.931Z,2.30
2018-12-16T22:52:12.281Z,2.20
2018-12-16T22:54:40.621Z,2.30
2018-12-16T22:57:08.992Z,2.20
2018-12-16T22:59:37.428Z,2.30
2018-12-16T23:02:05.961Z,2.30
2018-12-16T23:04:34.434Z,2.40
2018-12-16T23:07:02.932Z,2.40
2018-12-16T23:09:31.292Z,2.30
2018-12-16T23:11:59.648Z,2.10
2018-12-16T23:14:32.126Z,2.30
2018-12-16T23:17:00.574Z,2.30
2018-12-16T23:19:29.053Z,2.20
2018-12-16T23:21:57.388Z,2.20
2018-12-16T23:24:26.767Z,2.20
2018-12-16T23:26:55.125Z,2.40
2018-12-16T23:29:23.505Z,2.30
2018-12-16T23:31:51.896Z,2.50
2018-12-16T23:34:20.251Z,2.60
2018-12-16T23:36:48.672Z,2.60
2018-12-16T23:39:17.112Z,2.70
2018-12-16T23:41:45.466Z,2.80
2018-12-16T23:44:13.933Z,2.70
2018-12-16T23:46:42.301Z,2.70
2018-12-16T23:49:10.631Z,2.70
2018-12-16T23:51:38.987Z,2.60
2018-12-16T23:54:07.379Z,2.50
2018-12-16T23:56:35.806Z,2.60
2018-12-16T23:59:04.151Z,2.60
